»·PEaware :: N136JR KSBD-KEMT

N136JR :: KSBD-KEMT

FLIGHT INFORMATION

Flight Status: Arrived
Operator: Privately registered:
United States
More flights under this callsign
Pilot: Anonymous 30017 (30017)
Aircraft: CESSNA 172 SKYHAWK
(C172)
More flights by this aircraft type
Origin: KSBD San Bernardino Intl
United States
Destination: KEMT El Monte
United States
More flights between these airports :: More routes between these airports
Route: KSBD KEMT
File this flight plan on PilotEdge
Remarks: FOR CAT7
Altitude:
(Current/Filed)
4,500ft
Speed:
(Current/Filed)
130kts
Departed: 30-Jul-20 05:25 PM
Arrived: 30-Jul-20 05:55 PM
Distance/Time
Traveled:
40nm/0:30
Distance/Time
To Go:
Arrived

Flight Plot

Page will automatically refresh every two minutes.


Map Options




Map Legend


Flown Route
Filed Route
Departure Airport
Arrival Airport
Navaid (VOR, NDB)
Fix

Horizontal Profiles

Position Reports

Time Latitude Longitude Heading Altitude Ground
Speed
30-Jul-20 16:51 34.098169 -117.242496 359 1099ft 0kts
30-Jul-20 16:52 34.098169 -117.242496 359 1099ft 0kts
30-Jul-20 16:53 34.098169 -117.242496 359 1099ft 0kts
30-Jul-20 16:54 34.098169 -117.242496 359 1099ft 0kts
30-Jul-20 16:55 34.098169 -117.242496 359 1099ft 0kts
30-Jul-20 16:56 34.098169 -117.242496 359 1099ft 0kts
30-Jul-20 16:57 34.098169 -117.242496 359 1099ft 0kts
30-Jul-20 16:58 34.098169 -117.242496 359 1099ft 0kts
30-Jul-20 16:59 34.098169 -117.242496 359 1099ft 0kts
30-Jul-20 17:00 34.098169 -117.242496 359 1099ft 0kts
30-Jul-20 17:01 34.098169 -117.242496 359 1099ft 0kts
30-Jul-20 17:02 34.098169 -117.242496 359 1099ft 0kts
30-Jul-20 17:03 34.098169 -117.242496 359 1099ft 0kts
30-Jul-20 17:04 34.098169 -117.242496 359 1099ft 0kts
30-Jul-20 17:05 34.098169 -117.242496 359 1099ft 0kts
30-Jul-20 17:06 34.098169 -117.242496 359 1099ft 0kts
30-Jul-20 17:07 34.098169 -117.242496 359 1099ft 0kts
30-Jul-20 17:09 34.098169 -117.242496 359 1099ft 0kts
30-Jul-20 17:10 34.098273 -117.242324 112 1100ft 5kts
30-Jul-20 17:11 34.097854 -117.241551 187 1102ft 8kts
30-Jul-20 17:12 34.095997 -117.242128 185 1099ft 8kts
30-Jul-20 17:13 34.095128 -117.241649 79 1100ft 11kts
30-Jul-20 17:14 34.095680 -117.239724 73 1105ft 6kts
30-Jul-20 17:15 34.096526 -117.236918 71 1112ft 15kts
30-Jul-20 17:16 34.097802 -117.232519 71 1124ft 16kts
30-Jul-20 17:17 34.098626 -117.229753 67 1133ft 11kts
30-Jul-20 17:18 34.099585 -117.226494 62 1139ft 12kts
30-Jul-20 17:19 34.100502 -117.223384 70 1149ft 11kts
30-Jul-20 17:20 34.101339 -117.220503 67 1157ft 3kts
30-Jul-20 17:21 34.100812 -117.219755 159 1159ft 2kts
30-Jul-20 17:22 34.100726 -117.219716 158 1159ft 0kts
30-Jul-20 17:23 34.100466 -117.219608 163 1159ft 4kts
30-Jul-20 17:24 34.099719 -117.220055 246 1158ft 0kts
30-Jul-20 17:24 34.097816 -117.225829 246 1213ft 73kts
30-Jul-20 17:26 34.090813 -117.250233 276 2137ft 78kts
30-Jul-20 17:27 34.091247 -117.274773 267 2766ft 90kts
30-Jul-20 17:27 34.089723 -117.296119 277 3305ft 89kts
30-Jul-20 17:28 34.099980 -117.319699 307 3918ft 90kts
30-Jul-20 17:30 34.117100 -117.345593 309 4518ft 117kts
30-Jul-20 17:30 34.128636 -117.372583 281 4494ft 130kts
30-Jul-20 17:31 34.134613 -117.409285 281 4492ft 131kts
30-Jul-20 17:32 34.140030 -117.442939 281 4492ft 131kts
30-Jul-20 17:33 34.146134 -117.481162 281 4492ft 131kts
30-Jul-20 17:34 34.143886 -117.518557 235 4494ft 131kts
30-Jul-20 17:35 34.125673 -117.548525 233 4485ft 115kts
30-Jul-20 17:36 34.110203 -117.573635 233 4492ft 107kts
30-Jul-20 17:37 34.095506 -117.597656 240 4491ft 107kts
30-Jul-20 17:38 34.090408 -117.624710 266 4492ft 106kts
30-Jul-20 17:39 34.089684 -117.653190 268 4492ft 107kts
30-Jul-20 17:40 34.089294 -117.681987 268 4492ft 107kts
30-Jul-20 17:41 34.088908 -117.711746 268 4492ft 107kts
30-Jul-20 17:42 34.088524 -117.741029 268 4492ft 107kts
30-Jul-20 17:43 34.088131 -117.770433 268 4492ft 107kts
30-Jul-20 17:44 34.087715 -117.801042 268 4492ft 107kts
30-Jul-20 17:45 34.087361 -117.833410 269 4115ft 112kts
30-Jul-20 17:46 34.086939 -117.864290 268 3706ft 112kts
30-Jul-20 17:47 34.086510 -117.894314 268 3306ft 112kts
30-Jul-20 17:48 34.086075 -117.924140 268 2909ft 111kts
30-Jul-20 17:49 34.085635 -117.954020 269 2424ft 117kts
30-Jul-20 17:50 34.085256 -117.979675 268 1907ft 118kts
30-Jul-20 17:51 34.094990 -118.003932 325 1225ft 113kts
30-Jul-20 17:52 34.104776 -118.023869 244 734ft 100kts
30-Jul-20 17:53 34.090878 -118.032014 208 353ft 87kts
30-Jul-20 17:54 34.081515 -118.037400 202 282ft 10kts
30-Jul-20 17:55 34.081033 -118.037119 94 283ft 0kts
30-Jul-20 17:56 34.082075 -118.036091 37 284ft 0kts
30-Jul-20 17:57 34.082075 -118.036091 37 284ft 0kts

Navigation Log

Ident Type
Flight plan parsing failed, navigation log unavailable